createdAt,value
2022-12-18T00:00:24.796Z,102801.50
2022-12-18T00:02:55.014Z,102812.72
2022-12-18T00:05:24.441Z,102819.63
2022-12-18T00:07:54.683Z,102834.31
2022-12-18T00:10:23.154Z,102827.41
2022-12-18T00:12:51.369Z,102828.28
2022-12-18T00:15:19.758Z,102829.13
2022-12-18T00:17:48.049Z,102835.19
2022-12-18T00:20:16.317Z,102828.28
2022-12-18T00:22:44.507Z,102825.69
2022-12-18T00:25:13.992Z,102830.84
2022-12-18T00:27:41.921Z,102824.78
2022-12-18T00:30:11.128Z,102820.44
2022-12-18T00:32:41.006Z,102827.34
2022-12-18T00:35:10.128Z,102816.91
2022-12-18T00:37:38.728Z,102822.13
2022-12-18T00:40:10.552Z,102827.25
2022-12-18T00:42:57.779Z,102829.78
2022-12-18T00:45:28.031Z,102827.19
2022-12-18T00:47:57.025Z,102830.72
2022-12-18T00:50:27.139Z,102820.38
2022-12-18T00:52:55.403Z,102816.91
2022-12-18T00:55:24.250Z,102817.78
2022-12-18T00:57:54.801Z,102811.81
2022-12-18T01:00:24.371Z,102807.47
2022-12-18T01:02:52.682Z,102811.78
2022-12-18T01:05:21.455Z,102806.63
2022-12-18T01:07:49.576Z,102813.53
2022-12-18T01:10:17.633Z,102809.22
2022-12-18T01:12:46.727Z,102818.72
2022-12-18T01:15:19.725Z,102823.91
2022-12-18T01:17:47.814Z,102822.16
2022-12-18T01:20:17.857Z,102833.38
2022-12-18T01:22:47.492Z,102839.47
2022-12-18T01:25:16.520Z,102836.84
2022-12-18T01:27:45.251Z,102844.59
2022-12-18T01:30:14.308Z,102847.19
2022-12-18T01:32:44.197Z,102856.66
2022-12-18T01:35:12.528Z,102848.91
2022-12-18T01:37:40.502Z,102855.72
2022-12-18T01:40:09.975Z,102857.44
2022-12-18T01:42:38.469Z,102858.31
2022-12-18T01:45:10.704Z,102848.84
2022-12-18T01:47:41.799Z,102851.41
2022-12-18T01:50:14.232Z,102854.84
2022-12-18T01:52:43.497Z,102845.31
2022-12-18T01:55:13.597Z,102848.75
2022-12-18T01:57:42.659Z,102852.22
2022-12-18T02:00:16.215Z,102859.25
2022-12-18T02:02:46.598Z,102862.63
2022-12-18T02:05:19.565Z,102857.44
2022-12-18T02:07:57.206Z,102859.06
2022-12-18T02:10:30.143Z,102857.38
2022-12-18T02:13:02.702Z,102864.34
2022-12-18T02:15:40.032Z,102863.44
2022-12-18T02:18:12.611Z,102868.59
2022-12-18T02:20:46.829Z,102867.88
2022-12-18T02:23:30.151Z,102860.94
2022-12-18T02:26:10.382Z,102861.78
2022-12-18T02:28:44.023Z,102862.63
2022-12-18T02:31:16.739Z,102870.38
2022-12-18T02:33:48.788Z,102868.66
2022-12-18T02:36:18.536Z,102875.56
2022-12-18T02:38:48.834Z,102882.41
2022-12-18T02:41:22.629Z,102880.56
2022-12-18T02:43:52.233Z,102882.47
2022-12-18T02:46:42.215Z,102879.03
2022-12-18T02:49:34.819Z,102882.50
2022-12-18T02:52:08.172Z,102898.03
2022-12-18T02:54:47.464Z,102901.53
2022-12-18T02:57:22.153Z,102901.56
2022-12-18T02:59:57.658Z,102888.59
2022-12-18T03:02:32.843Z,102890.25
2022-12-18T03:05:05.081Z,102891.75
2022-12-18T03:07:40.245Z,102887.44
2022-12-18T03:10:14.738Z,102894.34
2022-12-18T03:12:49.015Z,102890.00
2022-12-18T03:15:21.743Z,102892.63
2022-12-18T03:18:01.253Z,102891.84
2022-12-18T03:20:33.446Z,102893.34
2022-12-18T03:23:06.013Z,102899.50
2022-12-18T03:25:35.399Z,102896.94
2022-12-18T03:28:05.561Z,102895.13
2022-12-18T03:30:40.047Z,102908.06
2022-12-18T03:33:11.665Z,102898.66
2022-12-18T03:35:44.922Z,102897.78
2022-12-18T03:38:14.932Z,102897.84
2022-12-18T03:40:57.249Z,102893.53
2022-12-18T03:43:44.086Z,102886.69
2022-12-18T03:46:20.027Z,102884.91
2022-12-18T03:48:51.300Z,102885.75
2022-12-18T03:51:27.217Z,102892.63
2022-12-18T03:53:59.875Z,102894.44
2022-12-18T03:56:39.274Z,102904.78
2022-12-18T03:59:10.999Z,102904.78
2022-12-18T04:01:43.489Z,102906.53
2022-12-18T04:04:15.543Z,102903.97
2022-12-18T04:06:45.780Z,102899.56
2022-12-18T04:09:14.817Z,102895.00
2022-12-18T04:11:48.721Z,102895.78
2022-12-18T04:14:19.788Z,102910.34
2022-12-18T04:16:52.691Z,102904.31
2022-12-18T04:19:25.230Z,102904.41
2022-12-18T04:21:56.518Z,102906.28
2022-12-18T04:24:25.787Z,102920.16
2022-12-18T04:27:05.594Z,102931.13
2022-12-18T04:29:44.150Z,102913.81
2022-12-18T04:32:12.324Z,102926.84
2022-12-18T04:34:42.954Z,102918.03
2022-12-18T04:37:10.995Z,102911.22
2022-12-18T04:39:40.069Z,102915.53
2022-12-18T04:42:15.511Z,102925.13
2022-12-18T04:44:45.679Z,102931.03
2022-12-18T04:47:13.951Z,102932.91
2022-12-18T04:49:42.357Z,102928.59
2022-12-18T04:52:10.461Z,102925.00
2022-12-18T04:54:38.397Z,102920.56
2022-12-18T04:57:07.400Z,102914.66
2022-12-18T04:59:35.624Z,102923.31
2022-12-18T05:02:05.802Z,102932.63
2022-12-18T05:04:33.996Z,102935.22
2022-12-18T05:07:02.299Z,102928.28
2022-12-18T05:09:31.675Z,102929.94
2022-12-18T05:12:00.157Z,102928.19
2022-12-18T05:14:28.542Z,102937.00
2022-12-18T05:17:00.836Z,102948.34
2022-12-18T05:19:34.213Z,102950.16
2022-12-18T05:22:03.305Z,102944.94
2022-12-18T05:24:31.714Z,102962.16
2022-12-18T05:26:59.670Z,102953.47
2022-12-18T05:29:30.052Z,102970.00
2022-12-18T05:31:58.075Z,102968.25
2022-12-18T05:34:28.616Z,102965.69
2022-12-18T05:36:58.621Z,102967.50
2022-12-18T05:39:27.783Z,102967.50
2022-12-18T05:41:55.743Z,102972.72
2022-12-18T05:44:23.777Z,102977.13
2022-12-18T05:46:51.948Z,102973.69
2022-12-18T05:49:20.138Z,102972.84
2022-12-18T05:51:49.361Z,102969.41
2022-12-18T05:54:18.901Z,102975.38
2022-12-18T05:56:48.865Z,102974.41
2022-12-18T05:59:17.308Z,102974.44
2022-12-18T06:01:45.879Z,102982.28
2022-12-18T06:04:14.645Z,102976.31
2022-12-18T06:06:43.106Z,102982.41
2022-12-18T06:09:11.582Z,102985.81
2022-12-18T06:11:41.277Z,102990.06
2022-12-18T06:14:12.414Z,102989.81
2022-12-18T06:16:41.729Z,102994.09
2022-12-18T06:19:09.913Z,102988.91
2022-12-18T06:21:37.909Z,102989.88
2022-12-18T06:24:06.794Z,103002.91
2022-12-18T06:26:36.253Z,102999.38
2022-12-18T06:29:05.589Z,103006.19
2022-12-18T06:31:34.248Z,103001.72
2022-12-18T06:34:04.735Z,103011.25
2022-12-18T06:36:34.912Z,103014.72
2022-12-18T06:39:03.412Z,103014.75
2022-12-18T06:41:32.095Z,103026.72
2022-12-18T06:44:00.699Z,103026.69
2022-12-18T06:46:30.443Z,103037.88
2022-12-18T06:48:59.746Z,103036.06
2022-12-18T06:51:28.513Z,103037.00
2022-12-18T06:53:58.283Z,103031.13
2022-12-18T06:56:26.261Z,103035.41
2022-12-18T06:58:55.868Z,103050.13
2022-12-18T07:01:26.491Z,103050.16
2022-12-18T07:03:56.810Z,103063.03
2022-12-18T07:06:27.224Z,103061.31
2022-12-18T07:08:57.520Z,103045.06
2022-12-18T07:11:25.865Z,103036.44
2022-12-18T07:13:54.614Z,103035.66
2022-12-18T07:16:25.582Z,103033.03
2022-12-18T07:18:56.644Z,103036.63
2022-12-18T07:21:25.777Z,103037.50
2022-12-18T07:23:55.396Z,103048.00
2022-12-18T07:26:24.274Z,103052.28
2022-12-18T07:28:52.941Z,103050.47
2022-12-18T07:31:23.038Z,103046.00
2022-12-18T07:33:54.350Z,103042.56
2022-12-18T07:36:27.776Z,103042.44
2022-12-18T07:38:58.862Z,103039.09
2022-12-18T07:41:28.445Z,103042.66
2022-12-18T07:43:57.564Z,103046.09
2022-12-18T07:46:25.913Z,103056.50
2022-12-18T07:48:54.167Z,103056.59
2022-12-18T07:51:22.501Z,103058.31
2022-12-18T07:53:52.386Z,103056.59
2022-12-18T07:56:30.554Z,103049.72
2022-12-18T07:59:04.702Z,103042.94
2022-12-18T08:01:33.093Z,103044.56
2022-12-18T08:04:01.400Z,103048.69
2022-12-18T08:06:30.590Z,103058.78
2022-12-18T08:08:59.929Z,103057.19
2022-12-18T08:11:30.583Z,103049.47
2022-12-18T08:13:58.918Z,103055.63
2022-12-18T08:16:28.656Z,103059.19
2022-12-18T08:18:57.232Z,103061.75
2022-12-18T08:21:27.448Z,103057.38
2022-12-18T08:23:57.403Z,103052.19
2022-12-18T08:26:29.089Z,103060.09
2022-12-18T08:28:58.514Z,103066.13
2022-12-18T08:31:28.748Z,103066.25
2022-12-18T08:33:58.056Z,103068.75
2022-12-18T08:36:27.330Z,103062.66
2022-12-18T08:38:56.634Z,103060.88
2022-12-18T08:41:27.495Z,103071.28
2022-12-18T08:44:13.197Z,103079.16
2022-12-18T08:46:42.794Z,103081.75
2022-12-18T08:49:11.952Z,103081.91
2022-12-18T08:51:41.117Z,103080.09
2022-12-18T08:54:09.301Z,103087.69
2022-12-18T08:56:39.423Z,103083.19
2022-12-18T08:59:07.420Z,103085.78
2022-12-18T09:01:35.771Z,103102.22
2022-12-18T09:04:05.034Z,103104.88
2022-12-18T09:06:35.334Z,103096.28
2022-12-18T09:09:05.283Z,103102.41
2022-12-18T09:11:35.502Z,103097.19
2022-12-18T09:14:05.774Z,103106.88
2022-12-18T09:16:36.183Z,103109.44
2022-12-18T09:19:05.218Z,103103.47
2022-12-18T09:21:37.104Z,103111.31
2022-12-18T09:24:08.703Z,103114.78
2022-12-18T09:26:37.941Z,103113.94
2022-12-18T09:29:09.156Z,103117.44
2022-12-18T09:31:39.287Z,103117.34
2022-12-18T09:34:09.063Z,103117.41
2022-12-18T09:36:37.369Z,103119.94
2022-12-18T09:39:08.461Z,103120.88
2022-12-18T09:41:46.530Z,103112.28
2022-12-18T09:44:27.298Z,103099.41
2022-12-18T09:47:14.617Z,103094.31
2022-12-18T09:49:47.404Z,103090.88
2022-12-18T09:52:20.492Z,103092.53
2022-12-18T09:54:52.232Z,103083.06
2022-12-18T09:57:22.938Z,103084.03
2022-12-18T09:59:56.809Z,103074.53
2022-12-18T10:02:27.434Z,103059.03
2022-12-18T10:05:05.347Z,103048.69
2022-12-18T10:07:51.519Z,103051.31
2022-12-18T10:10:29.677Z,103040.09
2022-12-18T10:13:05.094Z,103034.91
2022-12-18T10:15:41.168Z,103027.16
2022-12-18T10:18:22.257Z,103040.03
2022-12-18T10:20:57.039Z,103043.53
2022-12-18T10:23:29.365Z,103036.66
2022-12-18T10:26:03.266Z,103039.25
2022-12-18T10:28:33.560Z,103040.16
2022-12-18T10:31:03.816Z,103043.56
2022-12-18T10:33:33.239Z,103039.25
2022-12-18T10:36:02.469Z,103040.94
2022-12-18T10:38:32.676Z,103038.38
2022-12-18T10:41:05.461Z,103029.66
2022-12-18T10:43:35.976Z,103027.13
2022-12-18T10:46:20.142Z,103020.22
2022-12-18T10:48:57.424Z,103014.97
2022-12-18T10:51:31.649Z,103010.72
2022-12-18T10:54:02.116Z,103017.66
2022-12-18T10:56:32.786Z,103015.91
2022-12-18T10:59:03.141Z,103006.41
2022-12-18T11:01:48.391Z,102997.75
2022-12-18T11:04:20.479Z,102999.47
2022-12-18T11:07:01.944Z,102999.47
2022-12-18T11:09:35.724Z,103002.97
2022-12-18T11:12:07.942Z,103003.81
2022-12-18T11:14:47.387Z,103000.34
2022-12-18T11:17:25.830Z,102991.69
2022-12-18T11:19:56.159Z,102999.47
2022-12-18T11:22:28.625Z,102991.72
2022-12-18T11:27:53.869Z,102994.28
2022-12-18T11:30:27.764Z,102995.19
2022-12-18T11:33:01.948Z,102999.47
2022-12-18T11:35:55.478Z,102995.16
2022-12-18T11:38:26.581Z,103006.44
2022-12-18T11:40:59.338Z,103006.41
2022-12-18T11:43:31.234Z,103000.34
2022-12-18T11:46:05.241Z,102996.88
2022-12-18T11:48:41.050Z,103000.31
2022-12-18T11:51:27.961Z,103005.50
2022-12-18T11:53:56.227Z,103007.22
2022-12-18T11:56:36.160Z,103016.72
2022-12-18T11:59:11.558Z,103030.59
2022-12-18T12:01:53.063Z,103027.09
2022-12-18T12:04:52.981Z,103018.41
2022-12-18T12:07:31.442Z,103029.72
2022-12-18T12:10:07.191Z,103029.72
2022-12-18T12:12:51.292Z,103034.06
2022-12-18T12:15:36.763Z,103036.63
2022-12-18T12:18:11.803Z,103035.75
2022-12-18T12:20:53.932Z,103021.09
2022-12-18T12:23:29.438Z,103026.28
2022-12-18T12:26:05.701Z,103034.06
2022-12-18T12:28:54.987Z,103031.47
2022-12-18T12:31:49.747Z,103034.94
2022-12-18T12:34:21.336Z,103045.31
2022-12-18T12:37:07.768Z,103043.56
2022-12-18T12:39:40.001Z,103044.44
2022-12-18T12:42:31.082Z,103046.19
2022-12-18T12:45:04.138Z,103052.25
2022-12-18T12:47:37.780Z,103055.72
2022-12-18T12:50:13.309Z,103049.66
2022-12-18T12:52:46.253Z,103054.88
2022-12-18T12:55:19.327Z,103041.03
2022-12-18T12:58:28.216Z,103028.06
2022-12-18T13:01:10.402Z,103012.47
2022-12-18T13:03:48.597Z,103002.09
2022-12-18T13:06:22.371Z,102997.75
2022-12-18T13:08:58.342Z,102999.47
2022-12-18T13:12:00.298Z,102991.69
2022-12-18T13:14:35.738Z,102994.28
2022-12-18T13:17:37.086Z,102993.41
2022-12-18T13:20:11.807Z,103005.53
2022-12-18T13:22:44.154Z,103009.00
2022-12-18T13:25:36.231Z,103004.66
2022-12-18T13:28:13.750Z,103003.78
2022-12-18T13:30:58.334Z,102998.63
2022-12-18T13:34:09.431Z,103001.22
2022-12-18T13:36:37.282Z,103003.78
2022-12-18T13:39:36.117Z,103002.06
2022-12-18T13:43:01.199Z,102996.00
2022-12-18T13:45:42.401Z,102989.09
2022-12-18T13:48:21.265Z,102997.75
2022-12-18T13:51:17.136Z,102982.19
2022-12-18T13:53:49.235Z,102965.72
2022-12-18T13:56:18.437Z,102958.84
2022-12-18T13:59:06.207Z,102972.69
2022-12-18T14:01:35.490Z,102988.22
2022-12-18T14:04:15.323Z,102983.06
2022-12-18T14:06:44.090Z,102960.53
2022-12-18T14:09:21.596Z,102954.47
2022-12-18T14:11:50.552Z,102964.00
2022-12-18T14:14:22.758Z,102961.41
2022-12-18T14:16:53.562Z,102961.41
2022-12-18T14:19:23.020Z,102961.38
2022-12-18T14:21:53.405Z,102964.00
2022-12-18T14:24:23.898Z,102957.06
2022-12-18T14:26:52.854Z,102959.66
2022-12-18T14:29:25.627Z,102947.53
2022-12-18T14:32:17.862Z,102942.38
2022-12-18T14:34:47.739Z,102924.25
2022-12-18T14:37:17.160Z,102941.53
2022-12-18T14:39:55.491Z,102917.31
2022-12-18T14:42:29.227Z,102914.72
2022-12-18T14:45:41.583Z,102907.78
2022-12-18T14:48:22.825Z,102919.91
2022-12-18T14:50:59.806Z,102910.41
2022-12-18T14:53:36.598Z,102907.78
2022-12-18T14:56:06.197Z,102903.47
2022-12-18T14:58:36.349Z,102900.88
2022-12-18T15:01:06.263Z,102900.03
2022-12-18T15:03:36.503Z,102906.91
2022-12-18T15:06:19.013Z,102916.44
2022-12-18T15:08:47.206Z,102922.50
2022-12-18T15:11:29.088Z,102930.25
2022-12-18T15:14:00.161Z,102943.25
2022-12-18T15:16:30.416Z,102952.75
2022-12-18T15:18:59.086Z,102941.53
2022-12-18T15:21:31.507Z,102938.91
2022-12-18T15:24:03.279Z,102943.25
2022-12-18T15:26:39.457Z,102944.13
2022-12-18T15:29:22.927Z,102948.44
2022-12-18T15:32:06.697Z,102944.16
2022-12-18T15:34:36.125Z,102931.16
2022-12-18T15:37:04.781Z,102941.53
2022-12-18T15:39:33.112Z,102946.72
2022-12-18T15:42:22.765Z,102945.00
2022-12-18T15:44:51.485Z,102951.00
2022-12-18T15:47:21.569Z,102948.41
2022-12-18T15:49:51.276Z,102945.84
2022-12-18T15:52:26.881Z,102958.81
2022-12-18T15:55:12.919Z,102964.84
2022-12-18T15:57:42.681Z,102950.16
2022-12-18T16:00:14.921Z,102943.25
2022-12-18T16:02:46.223Z,102941.50
2022-12-18T16:05:17.922Z,102946.69
2022-12-18T16:07:46.611Z,102930.31
2022-12-18T16:10:16.634Z,102938.06
2022-12-18T16:12:45.145Z,102943.28
2022-12-18T16:15:22.509Z,102928.53
2022-12-18T16:17:53.765Z,102919.91
2022-12-18T16:20:25.144Z,102930.31
2022-12-18T16:22:54.227Z,102911.25
2022-12-18T16:25:27.259Z,102913.00
2022-12-18T16:27:57.419Z,102920.78
2022-12-18T16:30:32.750Z,102903.47
2022-12-18T16:33:08.877Z,102913.84
2022-12-18T16:35:38.116Z,102907.81
2022-12-18T16:38:09.028Z,102910.38
2022-12-18T16:41:01.792Z,102908.66
2022-12-18T16:43:31.272Z,102912.97
2022-12-18T16:46:04.096Z,102901.75
2022-12-18T16:48:38.070Z,102900.88
2022-12-18T16:51:07.294Z,102886.19
2022-12-18T16:53:35.812Z,102895.72
2022-12-18T16:56:06.226Z,102909.53
2022-12-18T16:58:35.483Z,102903.50
2022-12-18T17:01:08.621Z,102913.84
2022-12-18T17:03:39.628Z,102906.94
2022-12-18T17:06:08.822Z,102906.97
2022-12-18T17:08:39.282Z,102908.66
2022-12-18T17:11:10.494Z,102893.09
2022-12-18T17:13:40.873Z,102893.97
2022-12-18T17:16:10.767Z,102899.16
2022-12-18T17:18:41.241Z,102900.00
2022-12-18T17:21:12.191Z,102897.44
2022-12-18T17:23:44.576Z,102903.47
2022-12-18T17:26:13.849Z,102905.22
2022-12-18T17:28:44.197Z,102893.13
2022-12-18T17:31:14.291Z,102897.44
2022-12-18T17:33:46.347Z,102892.25
2022-12-18T17:36:16.588Z,102893.09
2022-12-18T17:38:44.887Z,102894.84
2022-12-18T17:41:14.972Z,102898.28
2022-12-18T17:43:45.979Z,102901.75
2022-12-18T17:46:16.066Z,102910.38
2022-12-18T17:48:45.632Z,102917.31
2022-12-18T17:51:14.606Z,102919.06
2022-12-18T17:53:43.044Z,102910.38
2022-12-18T17:56:13.802Z,102894.81
2022-12-18T17:58:42.264Z,102890.53
2022-12-18T18:01:12.355Z,102883.63
2022-12-18T18:03:43.077Z,102874.09
2022-12-18T18:06:13.850Z,102871.50
2022-12-18T18:08:42.812Z,102873.22
2022-12-18T18:11:31.554Z,102869.75
2022-12-18T18:14:03.069Z,102871.50
2022-12-18T18:16:34.306Z,102866.31
2022-12-18T18:19:08.004Z,102854.19
2022-12-18T18:21:41.046Z,102844.69
2022-12-18T18:24:10.456Z,102835.19
2022-12-18T18:26:41.640Z,102841.22
2022-12-18T18:29:11.159Z,102836.06
2022-12-18T18:31:43.367Z,102839.50
2022-12-18T18:34:16.173Z,102843.81
2022-12-18T18:36:46.609Z,102831.75
2022-12-18T18:39:15.677Z,102826.53
2022-12-18T18:41:48.015Z,102828.28
2022-12-18T18:44:18.501Z,102823.09
2022-12-18T18:46:48.709Z,102816.19
2022-12-18T18:49:18.377Z,102813.59
2022-12-18T18:51:51.501Z,102811.00
2022-12-18T18:54:22.380Z,102807.53
2022-12-18T18:59:39.577Z,102791.13
2022-12-18T19:02:08.232Z,102792.84
2022-12-18T19:04:41.224Z,102791.13
2022-12-18T19:07:24.047Z,102773.00
2022-12-18T19:10:04.135Z,102777.31
2022-12-18T19:12:51.795Z,102777.31
2022-12-18T19:15:20.197Z,102778.16
2022-12-18T19:17:48.382Z,102784.22
2022-12-18T19:20:24.725Z,102776.44
2022-12-18T19:22:58.636Z,102777.31
2022-12-18T19:25:39.974Z,102761.75
2022-12-18T19:28:13.256Z,102756.56
2022-12-18T19:30:57.309Z,102755.69
2022-12-18T19:33:44.620Z,102749.69
2022-12-18T19:36:15.727Z,102755.69
2022-12-18T19:38:45.615Z,102759.16
2022-12-18T19:41:15.641Z,102760.03
2022-12-18T19:43:44.822Z,102764.34
2022-12-18T19:46:16.030Z,102763.50
2022-12-18T19:48:45.776Z,102764.34
2022-12-18T19:51:16.886Z,102769.50
2022-12-18T19:53:47.737Z,102759.16
2022-12-18T19:56:18.744Z,102763.50
2022-12-18T19:58:47.779Z,102760.88
2022-12-18T20:01:18.943Z,102754.00
2022-12-18T20:03:52.357Z,102759.16
2022-12-18T20:06:26.748Z,102767.81
2022-12-18T20:09:00.097Z,102754.84
2022-12-18T20:11:29.903Z,102752.25
2022-12-18T20:13:59.359Z,102742.78
2022-12-18T20:16:28.600Z,102741.88
2022-12-18T20:18:58.040Z,102737.56
2022-12-18T20:21:26.493Z,102736.72
2022-12-18T20:23:57.025Z,102727.19
2022-12-18T20:26:25.826Z,102722.03
2022-12-18T20:28:55.799Z,102705.63
2022-12-18T20:31:24.851Z,102706.50
2022-12-18T20:33:54.482Z,102713.38
2022-12-18T20:36:28.215Z,102707.34
2022-12-18T20:39:01.605Z,102718.56
2022-12-18T20:41:36.064Z,102722.03
2022-12-18T20:44:11.174Z,102730.69
2022-12-18T20:46:53.267Z,102722.03
2022-12-18T20:49:21.429Z,102722.88
2022-12-18T20:51:52.487Z,102718.56
2022-12-18T20:54:22.120Z,102719.44
2022-12-18T20:56:50.589Z,102701.31
2022-12-18T20:59:20.304Z,102696.13
2022-12-18T21:01:49.467Z,102696.13
2022-12-18T21:04:20.328Z,102703.03
2022-12-18T21:06:55.716Z,102700.44
2022-12-18T21:09:36.214Z,102711.66
2022-12-18T21:12:25.774Z,102704.75
2022-12-18T21:14:54.934Z,102690.94
2022-12-18T21:17:24.009Z,102686.63
2022-12-18T21:19:56.234Z,102691.81
2022-12-18T21:22:27.107Z,102704.75
2022-12-18T21:24:57.866Z,102685.75
2022-12-18T21:27:27.524Z,102679.69
2022-12-18T21:29:55.879Z,102676.22
2022-12-18T21:32:31.928Z,102677.94
2022-12-18T21:35:01.855Z,102684.88
2022-12-18T21:37:30.956Z,102675.38
2022-12-18T21:40:00.968Z,102673.63
2022-12-18T21:42:46.887Z,102672.78
2022-12-18T21:45:16.066Z,102674.50
2022-12-18T21:47:44.737Z,102669.28
2022-12-18T21:50:13.547Z,102685.72
2022-12-18T21:52:42.626Z,102690.06
2022-12-18T21:55:13.398Z,102693.50
2022-12-18T21:57:42.891Z,102686.56
2022-12-18T22:00:18.871Z,102687.44
2022-12-18T22:03:07.376Z,102687.41
2022-12-18T22:05:37.318Z,102682.25
2022-12-18T22:08:06.854Z,102669.25
2022-12-18T22:10:37.353Z,102673.59
2022-12-18T22:13:08.364Z,102695.19
2022-12-18T22:15:36.981Z,102683.94
2022-12-18T22:18:14.519Z,102672.69
2022-12-18T22:20:43.297Z,102674.44
2022-12-18T22:23:13.012Z,102648.53
2022-12-18T22:25:42.610Z,102633.81
2022-12-18T22:28:28.684Z,102632.97
2022-12-18T22:30:59.521Z,102633.00
2022-12-18T22:33:29.088Z,102635.56
2022-12-18T22:35:58.599Z,102626.91
2022-12-18T22:38:28.749Z,102627.81
2022-12-18T22:40:59.369Z,102621.78
2022-12-18T22:43:28.652Z,102627.81
2022-12-18T22:45:57.184Z,102618.25
2022-12-18T22:48:28.552Z,102619.13
2022-12-18T22:51:00.636Z,102607.06
2022-12-18T22:53:29.263Z,102605.31
2022-12-18T22:56:05.821Z,102593.22
2022-12-18T22:58:39.127Z,102590.63
2022-12-18T23:01:09.758Z,102592.38
2022-12-18T23:03:41.964Z,102587.16
2022-12-18T23:06:14.822Z,102580.19
2022-12-18T23:08:45.211Z,102563.00
2022-12-18T23:11:19.790Z,102556.94
2022-12-18T23:13:54.123Z,102553.44
2022-12-18T23:16:25.962Z,102555.19
2022-12-18T23:18:56.464Z,102558.66
2022-12-18T23:21:26.763Z,102556.94
2022-12-18T23:23:55.750Z,102550.00
2022-12-18T23:26:27.281Z,102544.81
2022-12-18T23:28:56.601Z,102535.28
2022-12-18T23:31:27.513Z,102520.59
2022-12-18T23:33:59.122Z,102533.53
2022-12-18T23:36:27.686Z,102531.78
2022-12-18T23:39:00.851Z,102525.78
2022-12-18T23:41:32.663Z,102530.09
2022-12-18T23:44:03.823Z,102518.88
2022-12-18T23:46:40.581Z,102511.06
2022-12-18T23:49:09.407Z,102497.28
2022-12-18T23:51:37.842Z,102501.56
2022-12-18T23:54:08.276Z,102486.88
2022-12-18T23:56:40.069Z,102491.16
2022-12-18T23:59:11.120Z,102485.97
